sensor_id;sensor_type;location;lat;lon;timestamp;P1;durP1;ratioP1;P2;durP2;ratioP2
16294;SDS011;8255;49.560;8.244;2023-02-28T00:01:25;2.50;;;2.30;;
16294;SDS011;8255;49.560;8.244;2023-02-28T00:03:52;2.03;;;1.93;;
16294;SDS011;8255;49.560;8.244;2023-02-28T00:06:18;2.20;;;2.10;;
16294;SDS011;8255;49.560;8.244;2023-02-28T00:08:45;2.00;;;1.90;;
16294;SDS011;8255;49.560;8.244;2023-02-28T00:11:13;3.20;;;2.43;;
16294;SDS011;8255;49.560;8.244;2023-02-28T00:13:40;2.00;;;1.90;;
16294;SDS011;8255;49.560;8.244;2023-02-28T00:16:09;2.30;;;2.10;;
16294;SDS011;8255;49.560;8.244;2023-02-28T00:18:36;2.10;;;2.00;;
16294;SDS011;8255;49.560;8.244;2023-02-28T00:21:03;2.37;;;2.10;;
16294;SDS011;8255;49.560;8.244;2023-02-28T00:23:29;3.37;;;1.97;;
16294;SDS011;8255;49.560;8.244;2023-02-28T00:25:56;2.10;;;2.00;;
16294;SDS011;8255;49.560;8.244;2023-02-28T00:28:22;2.00;;;1.90;;
16294;SDS011;8255;49.560;8.244;2023-02-28T00:30:49;2.17;;;2.07;;
16294;SDS011;8255;49.560;8.244;2023-02-28T00:33:16;2.00;;;1.90;;
16294;SDS011;8255;49.560;8.244;2023-02-28T00:35:43;2.43;;;2.23;;
16294;SDS011;8255;49.560;8.244;2023-02-28T00:38:11;2.23;;;2.03;;
16294;SDS011;8255;49.560;8.244;2023-02-28T00:40:38;2.47;;;2.10;;
16294;SDS011;8255;49.560;8.244;2023-02-28T00:43:04;1.90;;;1.80;;
16294;SDS011;8255;49.560;8.244;2023-02-28T00:45:31;2.30;;;2.10;;
16294;SDS011;8255;49.560;8.244;2023-02-28T00:47:57;2.20;;;2.10;;
16294;SDS011;8255;49.560;8.244;2023-02-28T00:50:25;4.07;;;2.40;;
16294;SDS011;8255;49.560;8.244;2023-02-28T00:52:51;2.40;;;2.00;;
16294;SDS011;8255;49.560;8.244;2023-02-28T00:55:19;2.47;;;2.33;;
16294;SDS011;8255;49.560;8.244;2023-02-28T00:57:47;2.10;;;2.00;;
16294;SDS011;8255;49.560;8.244;2023-02-28T01:00:13;2.53;;;2.33;;
16294;SDS011;8255;49.560;8.244;2023-02-28T01:02:41;2.30;;;2.20;;
16294;SDS011;8255;49.560;8.244;2023-02-28T01:05:08;2.27;;;2.17;;
16294;SDS011;8255;49.560;8.244;2023-02-28T01:07:35;3.07;;;2.10;;
16294;SDS011;8255;49.560;8.244;2023-02-28T01:10:03;2.03;;;1.93;;
16294;SDS011;8255;49.560;8.244;2023-02-28T01:12:30;2.07;;;1.97;;
16294;SDS011;8255;49.560;8.244;2023-02-28T01:14:56;2.10;;;2.00;;
16294;SDS011;8255;49.560;8.244;2023-02-28T01:17:22;1.83;;;1.80;;
16294;SDS011;8255;49.560;8.244;2023-02-28T01:19:49;2.40;;;2.20;;
16294;SDS011;8255;49.560;8.244;2023-02-28T01:22:15;3.10;;;2.33;;
16294;SDS011;8255;49.560;8.244;2023-02-28T01:24:43;2.37;;;2.27;;
16294;SDS011;8255;49.560;8.244;2023-02-28T01:27:11;2.27;;;2.17;;
16294;SDS011;8255;49.560;8.244;2023-02-28T01:29:37;2.03;;;1.93;;
16294;SDS011;8255;49.560;8.244;2023-02-28T01:32:04;2.43;;;2.20;;
16294;SDS011;8255;49.560;8.244;2023-02-28T01:34:30;2.50;;;2.40;;
16294;SDS011;8255;49.560;8.244;2023-02-28T01:36:56;2.83;;;2.57;;
16294;SDS011;8255;49.560;8.244;2023-02-28T01:39:23;2.47;;;2.27;;
16294;SDS011;8255;49.560;8.244;2023-02-28T01:41:51;2.10;;;2.00;;
16294;SDS011;8255;49.560;8.244;2023-02-28T01:47:02;2.33;;;2.13;;
16294;SDS011;8255;49.560;8.244;2023-02-28T01:49:29;2.43;;;2.20;;
16294;SDS011;8255;49.560;8.244;2023-02-28T01:51:55;2.47;;;2.20;;
16294;SDS011;8255;49.560;8.244;2023-02-28T01:54:25;2.37;;;2.27;;
16294;SDS011;8255;49.560;8.244;2023-02-28T01:56:55;2.27;;;2.17;;
16294;SDS011;8255;49.560;8.244;2023-02-28T01:59:24;2.47;;;2.37;;
16294;SDS011;8255;49.560;8.244;2023-02-28T02:01:52;3.37;;;2.33;;
16294;SDS011;8255;49.560;8.244;2023-02-28T02:04:19;2.30;;;2.20;;
16294;SDS011;8255;49.560;8.244;2023-02-28T02:06:46;2.30;;;1.90;;
16294;SDS011;8255;49.560;8.244;2023-02-28T02:09:13;2.43;;;2.23;;
16294;SDS011;8255;49.560;8.244;2023-02-28T02:11:40;2.77;;;2.57;;
16294;SDS011;8255;49.560;8.244;2023-02-28T02:16:57;2.33;;;2.13;;
16294;SDS011;8255;49.560;8.244;2023-02-28T02:19:36;3.13;;;2.70;;
16294;SDS011;8255;49.560;8.244;2023-02-28T02:22:20;2.47;;;2.30;;
16294;SDS011;8255;49.560;8.244;2023-02-28T02:24:58;2.43;;;2.33;;
16294;SDS011;8255;49.560;8.244;2023-02-28T02:27:39;2.70;;;2.50;;
16294;SDS011;8255;49.560;8.244;2023-02-28T02:30:17;2.47;;;2.33;;
16294;SDS011;8255;49.560;8.244;2023-02-28T02:32:58;2.67;;;2.47;;
16294;SDS011;8255;49.560;8.244;2023-02-28T02:35:30;2.90;;;2.70;;
16294;SDS011;8255;49.560;8.244;2023-02-28T02:37:59;2.87;;;2.67;;
16294;SDS011;8255;49.560;8.244;2023-02-28T02:40:29;3.13;;;2.53;;
16294;SDS011;8255;49.560;8.244;2023-02-28T02:42:58;2.47;;;2.30;;
16294;SDS011;8255;49.560;8.244;2023-02-28T02:45:27;2.13;;;2.03;;
16294;SDS011;8255;49.560;8.244;2023-02-28T02:48:00;3.27;;;2.60;;
16294;SDS011;8255;49.560;8.244;2023-02-28T02:50:29;3.43;;;2.73;;
16294;SDS011;8255;49.560;8.244;2023-02-28T02:52:59;2.87;;;2.40;;
16294;SDS011;8255;49.560;8.244;2023-02-28T02:55:28;2.63;;;2.43;;
16294;SDS011;8255;49.560;8.244;2023-02-28T02:57:57;3.70;;;2.50;;
16294;SDS011;8255;49.560;8.244;2023-02-28T03:00:26;2.53;;;2.43;;
16294;SDS011;8255;49.560;8.244;2023-02-28T03:02:52;2.50;;;2.37;;
16294;SDS011;8255;49.560;8.244;2023-02-28T03:05:21;3.13;;;2.40;;
16294;SDS011;8255;49.560;8.244;2023-02-28T03:07:50;2.60;;;2.50;;
16294;SDS011;8255;49.560;8.244;2023-02-28T03:10:29;2.70;;;2.50;;
16294;SDS011;8255;49.560;8.244;2023-02-28T03:12:57;2.60;;;2.40;;
16294;SDS011;8255;49.560;8.244;2023-02-28T03:15:27;2.67;;;2.50;;
16294;SDS011;8255;49.560;8.244;2023-02-28T03:18:00;2.40;;;2.30;;
16294;SDS011;8255;49.560;8.244;2023-02-28T03:20:32;3.33;;;2.60;;
16294;SDS011;8255;49.560;8.244;2023-02-28T03:23:03;2.93;;;2.73;;
16294;SDS011;8255;49.560;8.244;2023-02-28T03:25:36;2.30;;;2.20;;
16294;SDS011;8255;49.560;8.244;2023-02-28T03:28:05;2.80;;;2.60;;
16294;SDS011;8255;49.560;8.244;2023-02-28T03:30:35;2.40;;;2.30;;
16294;SDS011;8255;49.560;8.244;2023-02-28T03:33:03;2.90;;;2.70;;
16294;SDS011;8255;49.560;8.244;2023-02-28T03:35:32;2.60;;;2.50;;
16294;SDS011;8255;49.560;8.244;2023-02-28T03:38:00;2.57;;;2.37;;
16294;SDS011;8255;49.560;8.244;2023-02-28T03:40:30;2.43;;;2.23;;
16294;SDS011;8255;49.560;8.244;2023-02-28T03:43:01;2.47;;;2.33;;
16294;SDS011;8255;49.560;8.244;2023-02-28T03:45:29;2.67;;;2.47;;
16294;SDS011;8255;49.560;8.244;2023-02-28T03:47:57;2.70;;;2.50;;
16294;SDS011;8255;49.560;8.244;2023-02-28T03:50:27;3.13;;;2.73;;
16294;SDS011;8255;49.560;8.244;2023-02-28T03:52:57;2.67;;;2.47;;
16294;SDS011;8255;49.560;8.244;2023-02-28T03:55:26;3.03;;;2.77;;
16294;SDS011;8255;49.560;8.244;2023-02-28T03:57:56;3.77;;;2.70;;
16294;SDS011;8255;49.560;8.244;2023-02-28T04:00:27;2.60;;;2.40;;
16294;SDS011;8255;49.560;8.244;2023-02-28T04:02:55;2.73;;;2.53;;
16294;SDS011;8255;49.560;8.244;2023-02-28T04:05:21;2.90;;;2.60;;
16294;SDS011;8255;49.560;8.244;2023-02-28T04:07:48;2.67;;;2.50;;
16294;SDS011;8255;49.560;8.244;2023-02-28T04:10:14;3.20;;;2.90;;
16294;SDS011;8255;49.560;8.244;2023-02-28T04:12:42;3.10;;;2.90;;
16294;SDS011;8255;49.560;8.244;2023-02-28T04:15:08;3.30;;;3.10;;
16294;SDS011;8255;49.560;8.244;2023-02-28T04:17:37;3.30;;;3.10;;
16294;SDS011;8255;49.560;8.244;2023-02-28T04:20:03;4.57;;;3.00;;
16294;SDS011;8255;49.560;8.244;2023-02-28T04:22:34;3.97;;;3.10;;
16294;SDS011;8255;49.560;8.244;2023-02-28T04:25:01;4.23;;;3.10;;
16294;SDS011;8255;49.560;8.244;2023-02-28T04:27:28;3.30;;;3.10;;
16294;SDS011;8255;49.560;8.244;2023-02-28T04:29:54;3.47;;;3.27;;
16294;SDS011;8255;49.560;8.244;2023-02-28T04:32:20;3.80;;;3.10;;
16294;SDS011;8255;49.560;8.244;2023-02-28T04:34:48;3.10;;;2.90;;
16294;SDS011;8255;49.560;8.244;2023-02-28T04:37:14;3.37;;;3.13;;
16294;SDS011;8255;49.560;8.244;2023-02-28T04:39:41;3.57;;;3.33;;
16294;SDS011;8255;49.560;8.244;2023-02-28T04:42:08;3.60;;;3.30;;
16294;SDS011;8255;49.560;8.244;2023-02-28T04:44:35;3.53;;;3.23;;
16294;SDS011;8255;49.560;8.244;2023-02-28T04:47:01;3.03;;;2.83;;
16294;SDS011;8255;49.560;8.244;2023-02-28T04:49:28;3.60;;;3.30;;
16294;SDS011;8255;49.560;8.244;2023-02-28T04:51:56;3.07;;;2.87;;
16294;SDS011;8255;49.560;8.244;2023-02-28T04:54:22;4.43;;;3.07;;
16294;SDS011;8255;49.560;8.244;2023-02-28T04:56:49;3.07;;;2.87;;
16294;SDS011;8255;49.560;8.244;2023-02-28T04:59:15;5.47;;;3.20;;
16294;SDS011;8255;49.560;8.244;2023-02-28T05:01:45;3.57;;;3.37;;
16294;SDS011;8255;49.560;8.244;2023-02-28T05:04:11;3.07;;;2.87;;
16294;SDS011;8255;49.560;8.244;2023-02-28T05:06:37;3.53;;;3.33;;
16294;SDS011;8255;49.560;8.244;2023-02-28T05:09:05;2.87;;;2.67;;
16294;SDS011;8255;49.560;8.244;2023-02-28T05:11:32;3.63;;;3.33;;
16294;SDS011;8255;49.560;8.244;2023-02-28T05:14:00;3.63;;;3.33;;
16294;SDS011;8255;49.560;8.244;2023-02-28T05:16:26;3.33;;;3.03;;
16294;SDS011;8255;49.560;8.244;2023-02-28T05:18:53;3.40;;;3.20;;
16294;SDS011;8255;49.560;8.244;2023-02-28T05:21:24;3.40;;;3.20;;
16294;SDS011;8255;49.560;8.244;2023-02-28T05:23:50;3.13;;;2.93;;
16294;SDS011;8255;49.560;8.244;2023-02-28T05:26:18;3.57;;;3.37;;
16294;SDS011;8255;49.560;8.244;2023-02-28T05:28:44;4.00;;;3.70;;
16294;SDS011;8255;49.560;8.244;2023-02-28T05:31:11;3.53;;;3.10;;
16294;SDS011;8255;49.560;8.244;2023-02-28T05:33:37;3.30;;;3.20;;
16294;SDS011;8255;49.560;8.244;2023-02-28T05:36:05;3.70;;;3.40;;
16294;SDS011;8255;49.560;8.244;2023-02-28T05:38:31;3.53;;;3.13;;
16294;SDS011;8255;49.560;8.244;2023-02-28T05:40:57;3.97;;;3.67;;
16294;SDS011;8255;49.560;8.244;2023-02-28T05:43:25;5.10;;;3.40;;
16294;SDS011;8255;49.560;8.244;2023-02-28T05:45:52;3.97;;;3.60;;
16294;SDS011;8255;49.560;8.244;2023-02-28T05:48:18;3.60;;;3.30;;
16294;SDS011;8255;49.560;8.244;2023-02-28T05:50:45;3.83;;;3.53;;
16294;SDS011;8255;49.560;8.244;2023-02-28T05:53:12;3.53;;;3.23;;
16294;SDS011;8255;49.560;8.244;2023-02-28T05:55:38;4.30;;;3.80;;
16294;SDS011;8255;49.560;8.244;2023-02-28T05:58:06;5.40;;;3.80;;
16294;SDS011;8255;49.560;8.244;2023-02-28T06:00:34;4.70;;;4.30;;
16294;SDS011;8255;49.560;8.244;2023-02-28T06:03:00;4.70;;;4.00;;
16294;SDS011;8255;49.560;8.244;2023-02-28T06:05:27;3.73;;;3.40;;
16294;SDS011;8255;49.560;8.244;2023-02-28T06:07:53;3.67;;;3.47;;
16294;SDS011;8255;49.560;8.244;2023-02-28T06:10:20;4.17;;;3.87;;
16294;SDS011;8255;49.560;8.244;2023-02-28T06:12:46;4.00;;;3.70;;
16294;SDS011;8255;49.560;8.244;2023-02-28T06:15:14;6.47;;;3.83;;
16294;SDS011;8255;49.560;8.244;2023-02-28T06:17:41;4.63;;;4.10;;
16294;SDS011;8255;49.560;8.244;2023-02-28T06:20:08;3.97;;;3.67;;
16294;SDS011;8255;49.560;8.244;2023-02-28T06:22:35;4.37;;;3.97;;
16294;SDS011;8255;49.560;8.244;2023-02-28T06:25:02;4.30;;;3.90;;
16294;SDS011;8255;49.560;8.244;2023-02-28T06:27:28;4.67;;;4.27;;
16294;SDS011;8255;49.560;8.244;2023-02-28T06:29:54;5.23;;;4.73;;
16294;SDS011;8255;49.560;8.244;2023-02-28T06:32:21;5.40;;;4.90;;
16294;SDS011;8255;49.560;8.244;2023-02-28T06:34:49;4.73;;;4.30;;
16294;SDS011;8255;49.560;8.244;2023-02-28T06:37:16;5.47;;;4.97;;
16294;SDS011;8255;49.560;8.244;2023-02-28T06:39:42;5.10;;;4.70;;
16294;SDS011;8255;49.560;8.244;2023-02-28T06:42:09;5.50;;;5.00;;
16294;SDS011;8255;49.560;8.244;2023-02-28T06:44:35;6.40;;;5.85;;
16294;SDS011;8255;49.560;8.244;2023-02-28T06:47:01;4.93;;;4.60;;
16294;SDS011;8255;49.560;8.244;2023-02-28T06:49:29;4.87;;;4.47;;
16294;SDS011;8255;49.560;8.244;2023-02-28T06:51:56;5.23;;;4.83;;
16294;SDS011;8255;49.560;8.244;2023-02-28T06:54:23;4.80;;;4.17;;
16294;SDS011;8255;49.560;8.244;2023-02-28T06:56:50;7.23;;;5.97;;
16294;SDS011;8255;49.560;8.244;2023-02-28T06:59:19;6.70;;;5.90;;
16294;SDS011;8255;49.560;8.244;2023-02-28T07:01:45;5.40;;;4.90;;
16294;SDS011;8255;49.560;8.244;2023-02-28T07:04:12;5.97;;;4.83;;
16294;SDS011;8255;49.560;8.244;2023-02-28T07:06:39;5.40;;;4.90;;
16294;SDS011;8255;49.560;8.244;2023-02-28T07:09:07;5.73;;;5.23;;
16294;SDS011;8255;49.560;8.244;2023-02-28T07:11:33;4.60;;;4.20;;
16294;SDS011;8255;49.560;8.244;2023-02-28T07:13:59;5.10;;;4.40;;
16294;SDS011;8255;49.560;8.244;2023-02-28T07:16:26;6.40;;;3.30;;
16294;SDS011;8255;49.560;8.244;2023-02-28T07:18:52;4.07;;;3.77;;
16294;SDS011;8255;49.560;8.244;2023-02-28T07:21:19;4.60;;;3.27;;
16294;SDS011;8255;49.560;8.244;2023-02-28T07:23:45;5.23;;;3.40;;
16294;SDS011;8255;49.560;8.244;2023-02-28T07:26:14;5.63;;;3.67;;
16294;SDS011;8255;49.560;8.244;2023-02-28T07:28:42;4.20;;;3.90;;
16294;SDS011;8255;49.560;8.244;2023-02-28T07:31:09;4.03;;;3.70;;
16294;SDS011;8255;49.560;8.244;2023-02-28T07:33:35;4.10;;;3.70;;
16294;SDS011;8255;49.560;8.244;2023-02-28T07:36:03;4.40;;;4.10;;
16294;SDS011;8255;49.560;8.244;2023-02-28T07:38:29;4.00;;;3.70;;
16294;SDS011;8255;49.560;8.244;2023-02-28T07:40:56;4.13;;;3.73;;
16294;SDS011;8255;49.560;8.244;2023-02-28T07:43:24;3.20;;;3.00;;
16294;SDS011;8255;49.560;8.244;2023-02-28T07:45:50;3.27;;;3.07;;
16294;SDS011;8255;49.560;8.244;2023-02-28T07:48:16;3.53;;;3.27;;
16294;SDS011;8255;49.560;8.244;2023-02-28T07:50:43;4.30;;;3.60;;
16294;SDS011;8255;49.560;8.244;2023-02-28T07:53:09;4.13;;;3.73;;
16294;SDS011;8255;49.560;8.244;2023-02-28T07:55:36;3.80;;;3.50;;
16294;SDS011;8255;49.560;8.244;2023-02-28T07:58:02;4.30;;;3.90;;
16294;SDS011;8255;49.560;8.244;2023-02-28T08:00:30;4.50;;;3.83;;
16294;SDS011;8255;49.560;8.244;2023-02-28T08:02:57;3.83;;;3.50;;
16294;SDS011;8255;49.560;8.244;2023-02-28T08:05:24;5.03;;;3.50;;
16294;SDS011;8255;49.560;8.244;2023-02-28T08:07:50;3.67;;;3.40;;
16294;SDS011;8255;49.560;8.244;2023-02-28T08:10:18;4.13;;;3.13;;
16294;SDS011;8255;49.560;8.244;2023-02-28T08:12:44;3.40;;;2.90;;
16294;SDS011;8255;49.560;8.244;2023-02-28T08:15:11;3.50;;;3.30;;
16294;SDS011;8255;49.560;8.244;2023-02-28T08:17:39;3.70;;;3.40;;
16294;SDS011;8255;49.560;8.244;2023-02-28T08:20:06;3.67;;;3.40;;
16294;SDS011;8255;49.560;8.244;2023-02-28T08:22:34;3.63;;;3.33;;
16294;SDS011;8255;49.560;8.244;2023-02-28T08:25:00;3.70;;;3.40;;
16294;SDS011;8255;49.560;8.244;2023-02-28T08:27:27;3.27;;;3.03;;
16294;SDS011;8255;49.560;8.244;2023-02-28T08:29:53;3.40;;;3.20;;
16294;SDS011;8255;49.560;8.244;2023-02-28T08:32:20;3.80;;;3.50;;
16294;SDS011;8255;49.560;8.244;2023-02-28T08:34:48;3.20;;;3.00;;
16294;SDS011;8255;49.560;8.244;2023-02-28T08:37:14;4.00;;;3.70;;
16294;SDS011;8255;49.560;8.244;2023-02-28T08:39:41;3.83;;;3.53;;
16294;SDS011;8255;49.560;8.244;2023-02-28T08:42:07;3.77;;;3.47;;
16294;SDS011;8255;49.560;8.244;2023-02-28T08:44:34;3.20;;;3.00;;
16294;SDS011;8255;49.560;8.244;2023-02-28T08:47:00;3.70;;;3.47;;
16294;SDS011;8255;49.560;8.244;2023-02-28T08:49:27;4.03;;;3.57;;
16294;SDS011;8255;49.560;8.244;2023-02-28T08:51:55;3.47;;;2.90;;
16294;SDS011;8255;49.560;8.244;2023-02-28T08:54:22;3.53;;;3.23;;
16294;SDS011;8255;49.560;8.244;2023-02-28T08:56:49;6.87;;;3.50;;
16294;SDS011;8255;49.560;8.244;2023-02-28T08:59:15;3.47;;;3.27;;
16294;SDS011;8255;49.560;8.244;2023-02-28T09:01:42;4.23;;;3.50;;
16294;SDS011;8255;49.560;8.244;2023-02-28T09:04:09;4.00;;;3.70;;
16294;SDS011;8255;49.560;8.244;2023-02-28T09:06:36;4.90;;;4.40;;
16294;SDS011;8255;49.560;8.244;2023-02-28T09:09:04;3.87;;;3.57;;
16294;SDS011;8255;49.560;8.244;2023-02-28T09:11:32;3.70;;;3.47;;
16294;SDS011;8255;49.560;8.244;2023-02-28T09:13:59;4.00;;;3.70;;
16294;SDS011;8255;49.560;8.244;2023-02-28T09:16:28;3.87;;;3.67;;
16294;SDS011;8255;49.560;8.244;2023-02-28T09:18:55;5.20;;;4.07;;
16294;SDS011;8255;49.560;8.244;2023-02-28T09:21:21;4.20;;;3.90;;
16294;SDS011;8255;49.560;8.244;2023-02-28T09:23:48;4.20;;;3.80;;
16294;SDS011;8255;49.560;8.244;2023-02-28T09:26:17;4.17;;;3.87;;
16294;SDS011;8255;49.560;8.244;2023-02-28T09:28:44;4.13;;;3.80;;
16294;SDS011;8255;49.560;8.244;2023-02-28T09:31:11;4.63;;;4.00;;
16294;SDS011;8255;49.560;8.244;2023-02-28T09:33:38;5.80;;;4.20;;
16294;SDS011;8255;49.560;8.244;2023-02-28T09:36:04;5.23;;;4.60;;
16294;SDS011;8255;49.560;8.244;2023-02-28T09:38:31;5.17;;;4.77;;
16294;SDS011;8255;49.560;8.244;2023-02-28T09:40:58;4.70;;;4.40;;
16294;SDS011;8255;49.560;8.244;2023-02-28T09:43:27;4.60;;;4.20;;
16294;SDS011;8255;49.560;8.244;2023-02-28T09:45:55;4.70;;;4.40;;
16294;SDS011;8255;49.560;8.244;2023-02-28T09:48:24;5.03;;;4.25;;
16294;SDS011;8255;49.560;8.244;2023-02-28T09:50:55;5.33;;;4.67;;
16294;SDS011;8255;49.560;8.244;2023-02-28T09:53:26;4.20;;;3.83;;
16294;SDS011;8255;49.560;8.244;2023-02-28T09:55:53;4.47;;;4.13;;
16294;SDS011;8255;49.560;8.244;2023-02-28T09:58:23;5.88;;;4.50;;
16294;SDS011;8255;49.560;8.244;2023-02-28T10:00:56;6.60;;;5.18;;
16294;SDS011;8255;49.560;8.244;2023-02-28T10:03:28;5.05;;;4.65;;
16294;SDS011;8255;49.560;8.244;2023-02-28T10:05:57;5.00;;;4.60;;
16294;SDS011;8255;49.560;8.244;2023-02-28T10:08:25;4.43;;;4.13;;
16294;SDS011;8255;49.560;8.244;2023-02-28T10:10:53;5.32;;;4.93;;
16294;SDS011;8255;49.560;8.244;2023-02-28T10:13:22;5.25;;;4.78;;
16294;SDS011;8255;49.560;8.244;2023-02-28T10:15:51;5.40;;;4.90;;
16294;SDS011;8255;49.560;8.244;2023-02-28T10:18:21;5.90;;;4.95;;
16294;SDS011;8255;49.560;8.244;2023-02-28T10:20:49;5.43;;;4.95;;
16294;SDS011;8255;49.560;8.244;2023-02-28T10:23:19;5.60;;;5.13;;
16294;SDS011;8255;49.560;8.244;2023-02-28T10:25:47;5.10;;;4.60;;
16294;SDS011;8255;49.560;8.244;2023-02-28T10:28:16;4.97;;;4.40;;
16294;SDS011;8255;49.560;8.244;2023-02-28T10:30:43;5.85;;;5.20;;
16294;SDS011;8255;49.560;8.244;2023-02-28T10:33:18;5.25;;;4.72;;
16294;SDS011;8255;49.560;8.244;2023-02-28T10:35:46;5.60;;;5.10;;
16294;SDS011;8255;49.560;8.244;2023-02-28T10:38:15;5.75;;;5.00;;
16294;SDS011;8255;49.560;8.244;2023-02-28T10:40:41;5.75;;;5.15;;
16294;SDS011;8255;49.560;8.244;2023-02-28T10:43:17;5.57;;;5.07;;
16294;SDS011;8255;49.560;8.244;2023-02-28T10:45:51;5.07;;;4.63;;
16294;SDS011;8255;49.560;8.244;2023-02-28T10:48:26;5.75;;;5.07;;
16294;SDS011;8255;49.560;8.244;2023-02-28T10:50:54;5.68;;;5.15;;
16294;SDS011;8255;49.560;8.244;2023-02-28T10:53:25;5.70;;;4.88;;
16294;SDS011;8255;49.560;8.244;2023-02-28T10:55:58;5.57;;;5.07;;
16294;SDS011;8255;49.560;8.244;2023-02-28T10:58:27;4.95;;;4.45;;
16294;SDS011;8255;49.560;8.244;2023-02-28T11:00:53;5.55;;;4.80;;
16294;SDS011;8255;49.560;8.244;2023-02-28T11:03:24;11.20;;;5.15;;
16294;SDS011;8255;49.560;8.244;2023-02-28T11:05:50;5.32;;;4.90;;
16294;SDS011;8255;49.560;8.244;2023-02-28T11:08:18;5.22;;;4.82;;
16294;SDS011;8255;49.560;8.244;2023-02-28T11:10:45;5.57;;;5.13;;
16294;SDS011;8255;49.560;8.244;2023-02-28T11:13:15;5.60;;;5.20;;
16294;SDS011;8255;49.560;8.244;2023-02-28T11:15:43;5.20;;;4.70;;
16294;SDS011;8255;49.560;8.244;2023-02-28T11:18:20;6.10;;;5.60;;
16294;SDS011;8255;49.560;8.244;2023-02-28T11:20:47;5.93;;;5.40;;
16294;SDS011;8255;49.560;8.244;2023-02-28T11:23:15;5.88;;;5.38;;
16294;SDS011;8255;49.560;8.244;2023-02-28T11:25:46;5.35;;;4.95;;
16294;SDS011;8255;49.560;8.244;2023-02-28T11:28:23;5.50;;;5.05;;
16294;SDS011;8255;49.560;8.244;2023-02-28T11:30:59;6.20;;;5.22;;
16294;SDS011;8255;49.560;8.244;2023-02-28T11:33:27;5.63;;;5.18;;
16294;SDS011;8255;49.560;8.244;2023-02-28T11:35:53;6.78;;;5.43;;
16294;SDS011;8255;49.560;8.244;2023-02-28T11:38:21;5.72;;;5.13;;
16294;SDS011;8255;49.560;8.244;2023-02-28T11:40:52;5.00;;;4.53;;
16294;SDS011;8255;49.560;8.244;2023-02-28T11:43:26;5.57;;;5.07;;
16294;SDS011;8255;49.560;8.244;2023-02-28T11:45:57;5.57;;;5.18;;
16294;SDS011;8255;49.560;8.244;2023-02-28T11:48:26;4.93;;;4.53;;
16294;SDS011;8255;49.560;8.244;2023-02-28T11:50:59;6.45;;;4.88;;
16294;SDS011;8255;49.560;8.244;2023-02-28T11:53:34;5.47;;;4.97;;
16294;SDS011;8255;49.560;8.244;2023-02-28T11:56:03;6.18;;;5.57;;
16294;SDS011;8255;49.560;8.244;2023-02-28T11:58:38;5.90;;;5.30;;
16294;SDS011;8255;49.560;8.244;2023-02-28T12:01:09;5.88;;;4.95;;
16294;SDS011;8255;49.560;8.244;2023-02-28T12:03:42;5.50;;;5.05;;
16294;SDS011;8255;49.560;8.244;2023-02-28T12:06:13;4.70;;;4.40;;
16294;SDS011;8255;49.560;8.244;2023-02-28T12:08:47;5.15;;;4.85;;
16294;SDS011;8255;49.560;8.244;2023-02-28T12:11:19;5.50;;;5.10;;
16294;SDS011;8255;49.560;8.244;2023-02-28T12:13:51;7.55;;;5.00;;
16294;SDS011;8255;49.560;8.244;2023-02-28T12:16:29;5.35;;;4.95;;
16294;SDS011;8255;49.560;8.244;2023-02-28T12:19:01;5.40;;;5.00;;
16294;SDS011;8255;49.560;8.244;2023-02-28T12:21:33;5.43;;;4.95;;
16294;SDS011;8255;49.560;8.244;2023-02-28T12:24:06;5.40;;;4.93;;
16294;SDS011;8255;49.560;8.244;2023-02-28T12:26:38;5.88;;;5.32;;
16294;SDS011;8255;49.560;8.244;2023-02-28T12:29:09;5.60;;;5.15;;
16294;SDS011;8255;49.560;8.244;2023-02-28T12:31:37;5.57;;;5.13;;
16294;SDS011;8255;49.560;8.244;2023-02-28T12:34:05;7.50;;;5.22;;
16294;SDS011;8255;49.560;8.244;2023-02-28T12:36:32;5.65;;;5.25;;
16294;SDS011;8255;49.560;8.244;2023-02-28T12:39:00;6.10;;;5.60;;
16294;SDS011;8255;49.560;8.244;2023-02-28T12:41:29;5.95;;;5.45;;
16294;SDS011;8255;49.560;8.244;2023-02-28T12:44:00;5.70;;;5.07;;
16294;SDS011;8255;49.560;8.244;2023-02-28T12:46:28;5.70;;;5.20;;
16294;SDS011;8255;49.560;8.244;2023-02-28T12:48:56;6.30;;;5.70;;
16294;SDS011;8255;49.560;8.244;2023-02-28T12:51:24;6.85;;;5.78;;
16294;SDS011;8255;49.560;8.244;2023-02-28T12:53:56;5.25;;;4.85;;
16294;SDS011;8255;49.560;8.244;2023-02-28T12:56:27;6.75;;;5.55;;
16294;SDS011;8255;49.560;8.244;2023-02-28T12:58:56;6.63;;;6.03;;
16294;SDS011;8255;49.560;8.244;2023-02-28T13:01:47;5.70;;;5.20;;
16294;SDS011;8255;49.560;8.244;2023-02-28T13:04:26;6.00;;;5.50;;
16294;SDS011;8255;49.560;8.244;2023-02-28T13:06:58;6.35;;;5.78;;
16294;SDS011;8255;49.560;8.244;2023-02-28T13:09:26;6.25;;;5.60;;
16294;SDS011;8255;49.560;8.244;2023-02-28T13:11:54;6.95;;;5.82;;
16294;SDS011;8255;49.560;8.244;2023-02-28T13:14:23;6.43;;;5.88;;
16294;SDS011;8255;49.560;8.244;2023-02-28T13:16:59;6.32;;;5.72;;
16294;SDS011;8255;49.560;8.244;2023-02-28T13:19:27;7.63;;;5.60;;
16294;SDS011;8255;49.560;8.244;2023-02-28T13:21:54;5.97;;;5.38;;
16294;SDS011;8255;49.560;8.244;2023-02-28T13:24:41;5.90;;;5.50;;
16294;SDS011;8255;49.560;8.244;2023-02-28T13:27:22;6.45;;;5.75;;
16294;SDS011;8255;49.560;8.244;2023-02-28T13:29:49;5.72;;;5.32;;
16294;SDS011;8255;49.560;8.244;2023-02-28T13:38:01;5.93;;;5.43;;
16294;SDS011;8255;49.560;8.244;2023-02-28T13:40:35;10.27;;;5.70;;
16294;SDS011;8255;49.560;8.244;2023-02-28T13:43:03;6.53;;;5.80;;
16294;SDS011;8255;49.560;8.244;2023-02-28T13:45:33;6.07;;;5.50;;
16294;SDS011;8255;49.560;8.244;2023-02-28T13:48:03;6.57;;;6.07;;
16294;SDS011;8255;49.560;8.244;2023-02-28T13:50:33;5.85;;;5.43;;
16294;SDS011;8255;49.560;8.244;2023-02-28T13:55:57;6.15;;;5.60;;
16294;SDS011;8255;49.560;8.244;2023-02-28T13:58:27;6.35;;;5.38;;
16294;SDS011;8255;49.560;8.244;2023-02-28T14:01:08;6.20;;;5.60;;
16294;SDS011;8255;49.560;8.244;2023-02-28T14:03:42;6.70;;;6.00;;
16294;SDS011;8255;49.560;8.244;2023-02-28T14:06:15;6.35;;;5.82;;
16294;SDS011;8255;49.560;8.244;2023-02-28T14:08:45;5.85;;;5.10;;
16294;SDS011;8255;49.560;8.244;2023-02-28T14:11:24;6.30;;;5.70;;
16294;SDS011;8255;49.560;8.244;2023-02-28T14:13:51;5.93;;;5.40;;
16294;SDS011;8255;49.560;8.244;2023-02-28T14:16:19;6.25;;;5.75;;
16294;SDS011;8255;49.560;8.244;2023-02-28T14:18:48;6.10;;;5.60;;
16294;SDS011;8255;49.560;8.244;2023-02-28T14:21:19;5.88;;;5.43;;
16294;SDS011;8255;49.560;8.244;2023-02-28T14:24:03;6.50;;;5.90;;
16294;SDS011;8255;49.560;8.244;2023-02-28T14:26:37;6.18;;;5.68;;
16294;SDS011;8255;49.560;8.244;2023-02-28T14:29:14;5.85;;;5.35;;
16294;SDS011;8255;49.560;8.244;2023-02-28T14:31:44;6.70;;;6.05;;
16294;SDS011;8255;49.560;8.244;2023-02-28T14:34:17;6.57;;;5.97;;
16294;SDS011;8255;49.560;8.244;2023-02-28T14:36:47;6.63;;;5.68;;
16294;SDS011;8255;49.560;8.244;2023-02-28T14:39:15;6.40;;;5.85;;
16294;SDS011;8255;49.560;8.244;2023-02-28T14:41:46;6.28;;;5.68;;
16294;SDS011;8255;49.560;8.244;2023-02-28T14:44:14;6.88;;;6.00;;
16294;SDS011;8255;49.560;8.244;2023-02-28T14:46:41;6.03;;;5.63;;
16294;SDS011;8255;49.560;8.244;2023-02-28T14:49:16;6.88;;;6.30;;
16294;SDS011;8255;49.560;8.244;2023-02-28T14:51:43;5.93;;;5.43;;
16294;SDS011;8255;49.560;8.244;2023-02-28T14:54:12;6.53;;;6.03;;
16294;SDS011;8255;49.560;8.244;2023-02-28T14:56:39;7.28;;;6.20;;
16294;SDS011;8255;49.560;8.244;2023-02-28T14:59:20;5.88;;;5.38;;
16294;SDS011;8255;49.560;8.244;2023-02-28T15:01:48;5.30;;;4.88;;
16294;SDS011;8255;49.560;8.244;2023-02-28T15:04:18;6.28;;;5.78;;
16294;SDS011;8255;49.560;8.244;2023-02-28T15:06:46;6.13;;;5.63;;
16294;SDS011;8255;49.560;8.244;2023-02-28T15:09:32;6.28;;;5.70;;
16294;SDS011;8255;49.560;8.244;2023-02-28T15:11:59;5.40;;;5.00;;
16294;SDS011;8255;49.560;8.244;2023-02-28T15:14:26;6.70;;;6.20;;
16294;SDS011;8255;49.560;8.244;2023-02-28T15:16:55;6.78;;;5.88;;
16294;SDS011;8255;49.560;8.244;2023-02-28T15:19:23;6.00;;;5.50;;
16294;SDS011;8255;49.560;8.244;2023-02-28T15:21:51;6.03;;;5.43;;
16294;SDS011;8255;49.560;8.244;2023-02-28T15:24:19;6.40;;;5.80;;